Grand Canyon National Park, AZ

1:02 PM MST on January 30, 2015 (GMT -0700)
KAZGRAND3 | Change Station
CLOSE
Current Station
Personal Weather Station
Location: Grand Canyon, AZ
Elevation: 6991 ft
Nearby Weather Stations

Elev 6991 ft 36.05 °N, 112.12 °W | Updated 2 seconds ago

Mostly Cloudy
Mostly Cloudy
35.7 °F
Feels Like 30 °F
N
7.0
Wind Variable Wind from SE
Gusts 11.0 mph

Today
High -- | Low -- °F
--% Chance of Precip.
Yesterday
High -- | Low -- °F
Precip. -- in
7:30 AM 5:53 PM
Waxing Gibbous, 84% visible
Pressure 29.95 in
Visibility 4.0 miles
Clouds Few 1100 ft
Mostly Cloudy 4000 ft
Overcast 4700 ft
Windchill 30 °F
Dew Point 34 °F
Humidity 93%
Rainfall 0.00 in
Snow Depth Not available.
UV 2 out of 12
Pollen .60 out of 12
Air Quality Not available.
Flu Activity Not available.
SPECI KGCN 301956Z 08007G16KT 4SM -RA BR FEW011 BKN040 OVC047 04/03 A2995 RMK AO2 P0000 T00390028

More Conditions Fewer Conditions

Pressure 29.95 in
Visibility 4.0 miles
Clouds Few 1100 ft
Mostly Cloudy 4000 ft
Overcast 4700 ft
Windchill 30 °F
Dew Point 34 °F
Humidity 93%
Rainfall 0.00 in
Snow Depth Not available.
UV 2 out of 12
Pollen .60 out of 12
Air Quality Not available.
Flu Activity Not available.
SPECI KGCN 301956Z 08007G16KT 4SM -RA BR FEW011 BKN040 OVC047 04/03 A2995 RMK AO2 P0000 T00390028

More Conditions Fewer Conditions

10-Day Weather Forecast

Almanac

Astronomy

Jan. 30, 2015 Rise Set
Actual Time
Civil Twilight
Nautical Twilight
Astronomical Twilight
Moon
Length of Visible Light
Length of Day
Tomorrow will be .
, % of the Moon is Illuminated

Today's Extremes

State Highs State Lows

Community

WunderPhotos

Upload Photos

1,791,882 photos uploaded!

WunderBlogs® & News

Nearby

Air Quality

  Air Quality AQ Index Pollutant
Not available.

Snow Depth

Station Depth Elevation

Earthquake Activity

City Distance Mag. Time & Date
Minimum magnitude displayed is 2.5.

Coastal Water Temperatures

Place Temperature

Nearby Weather Stations